Map

Track Data

SID SEASON NUMBER BASIN SUBBASIN NAME ISO_TIME NATURE LAT LON WMO_WIND WMO_PRES WMO_AGENCY TRACK_TYPE DIST2LAND LANDFALL IFLAG USA_AGENCY USA_ATCF_ID USA_LAT USA_LON USA_RECORD USA_STATUS USA_WIND USA_PRES USA_SSHS USA_R34_NE USA_R34_SE USA_R34_SW USA_R34_NW USA_R50_NE USA_R50_SE USA_R50_SW USA_R50_NW USA_R64_NE USA_R64_SE USA_R64_SW USA_R64_NW USA_POCI USA_ROCI USA_RMW USA_EYE TOKYO_LAT TOKYO_LON TOKYO_GRADE TOKYO_WIND TOKYO_PRES TOKYO_R50_DIR TOKYO_R50_LONG TOKYO_R50_SHORT TOKYO_R30_DIR TOKYO_R30_LONG TOKYO_R30_SHORT TOKYO_LAND CMA_LAT CMA_LON CMA_CAT CMA_WIND CMA_PRES HKO_LAT HKO_LON HKO_CAT HKO_WIND HKO_PRES NEWDELHI_LAT NEWDELHI_LON NEWDELHI_GRADE NEWDELHI_WIND NEWDELHI_PRES NEWDELHI_CI NEWDELHI_DP NEWDELHI_POCI REUNION_LAT REUNION_LON REUNION_TYPE REUNION_WIND REUNION_PRES REUNION_TNUM REUNION_CI REUNION_RMW REUNION_R34_NE REUNION_R34_SE REUNION_R34_SW REUNION_R34_NW REUNION_R50_NE REUNION_R50_SE REUNION_R50_SW REUNION_R50_NW REUNION_R64_NE REUNION_R64_SE REUNION_R64_SW REUNION_R64_NW BOM_LAT BOM_LON BOM_TYPE BOM_WIND BOM_PRES BOM_TNUM BOM_CI BOM_RMW BOM_R34_NE BOM_R34_SE BOM_R34_SW BOM_R34_NW BOM_R50_NE BOM_R50_SE BOM_R50_SW BOM_R50_NW BOM_R64_NE BOM_R64_SE BOM_R64_SW BOM_R64_NW BOM_ROCI BOM_POCI BOM_EYE BOM_POS_METHOD BOM_PRES_METHOD NADI_LAT NADI_LON NADI_CAT NADI_WIND NADI_PRES WELLINGTON_LAT WELLINGTON_LON WELLINGTON_WIND WELLINGTON_PRES DS824_LAT DS824_LON DS824_STAGE DS824_WIND DS824_PRES TD9636_LAT TD9636_LON TD9636_STAGE TD9636_WIND TD9636_PRES TD9635_LAT TD9635_LON TD9635_WIND TD9635_PRES TD9635_ROCI NEUMANN_LAT NEUMANN_LON NEUMANN_CLASS NEUMANN_WIND NEUMANN_PRES MLC_LAT MLC_LON MLC_CLASS MLC_WIND MLC_PRES USA_GUST BOM_GUST BOM_GUST_PER REUNION_GUST REUNION_GUST_PER USA_SEAHGT USA_SEARAD_NE USA_SEARAD_SE USA_SEARAD_SW USA_SEARAD_NW STORM_SPEED STORM_DIR
1957253N15087 1957 56 NI BB NOT_NAMED 1957-09-09 18:00:00 TS 15.4000 86.9000 main 440 432 O________O____ jtwc_io IO041957 15.4000 86.9000 -1 15.4000 86.9000 TC 1 0
1957253N15087 1957 56 NI BB NOT_NAMED 1957-09-09 21:00:00 TS 15.4575 86.8850 main 432 416 P________P____ IO041957 15.4575 86.8850 -1 15.4575 86.8850 TC 2 333
1957253N15087 1957 56 NI BB NOT_NAMED 1957-09-10 00:00:00 TS 15.6000 86.8000 main 416 377 O________O____ jtwc_io IO041957 15.6000 86.8000 -1 15.6000 86.8000 TC 25 5 327
1957253N15087 1957 56 NI BB NOT_NAMED 1957-09-10 03:00:00 TS 15.8911 86.5955 main 377 323 P________PO___ IO041957 15.8900 86.5949 -1 15.8900 86.5949 TC 25 15.9000 86.6000 1 9 326
1957253N15087 1957 56 NI BB NOT_NAMED 1957-09-10 06:00:00 TS 16.3153 86.2954 main 323 261 O________OP___ jtwc_io IO041957 16.3000 86.3000 -1 16.3000 86.3000 TC 25 16.3765 86.2768 1 11 327
1957253N15087 1957 56 NI BB NOT_NAMED 1957-09-10 09:00:00 TS 16.7978 85.9723 main 261 192 P________PP___ IO041957 16.7774 85.9873 -1 16.7774 85.9873 TC 25 16.8523 85.9324 1 12 325
1957253N15087 1957 56 NI BB NOT_NAMED 1957-09-10 12:00:00 TS 17.3090 85.5823 main 192 123 O________OP___ jtwc_io IO041957 17.3000 85.6000 -1 17.3000 85.6000 TC 25 17.3269 85.5468 1 13 321
1957253N15087 1957 56 NI BB NOT_NAMED 1957-09-10 15:00:00 TS 17.8099 85.1249 main 115 38 P________PO___ IO041957 17.8149 85.1374 -1 17.8149 85.1374 TC 25 17.8000 85.1000 1 14 316
1957253N15087 1957 56 NI BB NOT_NAMED 1957-09-10 18:00:00 TS 18.2889 84.5936 main 38 0 O________OP___ jtwc_io IO041957 18.3000 84.6000 -1 18.3000 84.6000 TC 25 18.2667 84.5809 1 14 311
1957253N15087 1957 56 NI BB NOT_NAMED 1957-09-10 21:00:00 TS 18.7270 84.0005 main 0 0 P________PP___ IO041957 18.7376 83.9926 -1 18.7376 83.9926 TC 25 18.7057 84.0164 1 14 306
1957253N15087 1957 56 NI BB NOT_NAMED 1957-09-11 00:00:00 TS 19.0972 83.4145 main 0 0 O________OP___ jtwc_io IO041957 19.1000 83.4000 -1 19.1000 83.4000 TC 25 19.0917 83.4435 1 12 303
1957253N15087 1957 56 NI BB NOT_NAMED 1957-09-11 03:00:00 TS 19.3965 82.9182 main 0 0 P________PO___ IO041957 19.3947 82.9272 -1 19.3947 82.9272 TC 25 19.4000 82.9000 1 10 300
1957253N15087 1957 56 NI BB NOT_NAMED 1957-09-11 06:00:00 TS 19.6025 82.4779 main 0 0 O________OP___ jtwc_io IO041957 19.6000 82.5000 -1 19.6000 82.5000 TC 25 19.6074 82.4336 1 9 292
1957253N15087 1957 56 NI BB NOT_NAMED 1957-09-11 09:00:00 TS 19.7280 82.0293 main 0 0 P________PP___ IO041957 19.7224 82.0423 -1 19.7224 82.0423 TC 25 19.7391 82.0033 1 9 284
1957253N15087 1957 56 NI BB NOT_NAMED 1957-09-11 12:00:00 TS 19.8088 81.5988 main 0 0 O________OP___ jtwc_io IO041957 19.8000 81.6000 -1 19.8000 81.6000 TC 25 19.8263 81.5964 1 8 282
1957253N15087 1957 56 NI BB NOT_NAMED 1957-09-11 15:00:00 TS 19.8999 81.1950 main 0 0 P________PO___ IO041957 19.8999 81.1924 -1 19.8999 81.1924 TC 25 19.9000 81.2000 1 8 284
1957253N15087 1957 56 NI BB NOT_NAMED 1957-09-11 18:00:00 TS 19.9997 80.7867 main 0 0 O________OP___ jtwc_io IO041957 20.0000 80.8000 -1 20.0000 80.8000 TC 25 19.9991 80.7601 1 8 284
1957253N15087 1957 56 NI BB NOT_NAMED 1957-09-11 21:00:00 TS 20.0975 80.3724 main 0 0 P________PP___ IO041957 20.1000 80.3925 -1 20.1000 80.3925 TC 25 20.0927 80.3323 1 8 285
1957253N15087 1957 56 NI BB NOT_NAMED 1957-09-12 00:00:00 TS 20.1966 79.9794 main 0 0 O________OP___ jtwc_io IO041957 20.2000 80.0000 -1 20.2000 80.0000 TC 25 20.1899 79.9383 1 7 285
1957253N15087 1957 56 NI BB NOT_NAMED 1957-09-12 03:00:00 TS 20.2950 79.6133 main 0 0 P________PO___ IO041957 20.2925 79.6200 -1 20.2925 79.6200 TC 25 20.3000 79.6000 1 7 289
1957253N15087 1957 56 NI BB NOT_NAMED 1957-09-12 06:00:00 TS 20.4077 79.3087 main 0 0 O________OP___ jtwc_io IO041957 20.4000 79.3000 -1 20.4000 79.3000 TC 25 20.4230 79.3261 1 6 296
1957253N15087 1957 56 NI BB NOT_NAMED 1957-09-12 09:00:00 TS 20.5439 79.0782 main 0 0 P________PP___ IO041957 20.5349 79.0625 -1 20.5349 79.0625 TC 25 20.5620 79.1098 1 5 309
1957253N15087 1957 56 NI BB NOT_NAMED 1957-09-12 12:00:00 TS 20.7067 78.9129 main 0 0 O________OP___ jtwc_io IO041957 20.7000 78.9000 -1 20.7000 78.9000 TC 25 20.7200 78.9386 1 4 323
1957253N15087 1957 56 NI BB NOT_NAMED 1957-09-12 15:00:00 TS 20.8950 78.7900 main 0 0 P________PO___ IO041957 20.8925 78.7849 -1 20.8925 78.7849 TC 25 20.9000 78.8000 1 4 333
1957253N15087 1957 56 NI BB NOT_NAMED 1957-09-12 18:00:00 TS 21.1013 78.6931 main 0 0 O________OP___ jtwc_io IO041957 21.1000 78.7000 -1 21.1000 78.7000 TC 25 21.1033 78.6827 1 5 337
1957253N15087 1957 56 NI BB NOT_NAMED 1957-09-12 21:00:00 TS 21.3122 78.5944 main 0 0 P________PP___ IO041957 21.3025 78.6051 -1 21.3025 78.6051 TC 25 21.3252 78.5803 1 5 337
1957253N15087 1957 56 NI BB NOT_NAMED 1957-09-13 00:00:00 TS 21.5298 78.4939 main 0 0 O________OP___ jtwc_io IO041957 21.5000 78.5000 -1 21.5000 78.5000 TC 25 21.5595 78.4877 1 5 340
1957253N15087 1957 56 NI BB NOT_NAMED 1957-09-13 03:00:00 NR 21.8000 78.4000 main 0 __________O___ IO041957 -1 TC 21.8000 78.4000 1 6 341

About IBTrACS Database

This database is a web-friendly format of International Best Track Archive for Climate Stewardship (IBTrACS), a global best track data archive curated by NOAA dating back to 1842.

Updated: 2021-12-06